sensor_id;sensor_type;location;lat;lon;timestamp;P1;durP1;ratioP1;P2;durP2;ratioP2
15022;SDS011;19850;49.576;10.880;2023-02-01T00:02:20;4.33;;;3.83;;
15022;SDS011;19850;49.576;10.880;2023-02-01T00:06:23;4.30;;;3.90;;
15022;SDS011;19850;49.576;10.880;2023-02-01T00:10:28;4.57;;;4.13;;
15022;SDS011;19850;49.576;10.880;2023-02-01T00:14:30;5.10;;;4.60;;
15022;SDS011;19850;49.576;10.880;2023-02-01T00:18:39;5.07;;;4.37;;
15022;SDS011;19850;49.576;10.880;2023-02-01T00:22:42;5.80;;;4.60;;
15022;SDS011;19850;49.576;10.880;2023-02-01T00:26:46;4.33;;;3.93;;
15022;SDS011;19850;49.576;10.880;2023-02-01T00:30:55;4.20;;;3.80;;
15022;SDS011;19850;49.576;10.880;2023-02-01T00:34:58;4.17;;;3.77;;
15022;SDS011;19850;49.576;10.880;2023-02-01T00:39:01;5.23;;;3.60;;
15022;SDS011;19850;49.576;10.880;2023-02-01T00:43:06;3.87;;;3.43;;
15022;SDS011;19850;49.576;10.880;2023-02-01T00:47:09;3.70;;;3.40;;
15022;SDS011;19850;49.576;10.880;2023-02-01T00:51:12;3.93;;;3.53;;
15022;SDS011;19850;49.576;10.880;2023-02-01T00:55:16;3.50;;;3.20;;
15022;SDS011;19850;49.576;10.880;2023-02-01T00:59:20;3.40;;;3.10;;
15022;SDS011;19850;49.576;10.880;2023-02-01T01:03:23;3.30;;;3.00;;
15022;SDS011;19850;49.576;10.880;2023-02-01T01:07:27;4.03;;;3.53;;
15022;SDS011;19850;49.576;10.880;2023-02-01T01:11:30;2.97;;;2.77;;
15022;SDS011;19850;49.576;10.880;2023-02-01T01:15:39;3.37;;;2.63;;
15022;SDS011;19850;49.576;10.880;2023-02-01T01:19:42;3.37;;;3.07;;
15022;SDS011;19850;49.576;10.880;2023-02-01T01:23:45;3.30;;;3.00;;
15022;SDS011;19850;49.576;10.880;2023-02-01T01:27:48;3.13;;;2.90;;
15022;SDS011;19850;49.576;10.880;2023-02-01T01:31:54;2.90;;;2.70;;
15022;SDS011;19850;49.576;10.880;2023-02-01T01:35:57;3.40;;;3.00;;
15022;SDS011;19850;49.576;10.880;2023-02-01T01:40:00;3.20;;;2.90;;
15022;SDS011;19850;49.576;10.880;2023-02-01T01:44:03;2.90;;;2.70;;
15022;SDS011;19850;49.576;10.880;2023-02-01T01:48:10;3.33;;;3.03;;
15022;SDS011;19850;49.576;10.880;2023-02-01T01:52:15;4.87;;;2.97;;
15022;SDS011;19850;49.576;10.880;2023-02-01T01:56:18;4.30;;;3.13;;
15022;SDS011;19850;49.576;10.880;2023-02-01T02:00:21;3.53;;;3.20;;
15022;SDS011;19850;49.576;10.880;2023-02-01T02:04:26;3.00;;;2.70;;
15022;SDS011;19850;49.576;10.880;2023-02-01T02:08:29;3.23;;;2.93;;
15022;SDS011;19850;49.576;10.880;2023-02-01T02:12:33;3.10;;;2.80;;
15022;SDS011;19850;49.576;10.880;2023-02-01T02:25:36;3.70;;;3.17;;
15022;SDS011;19850;49.576;10.880;2023-02-01T02:29:59;3.27;;;2.97;;
15022;SDS011;19850;49.576;10.880;2023-02-01T02:34:22;3.77;;;3.37;;
15022;SDS011;19850;49.576;10.880;2023-02-01T02:38:30;3.63;;;3.33;;
15022;SDS011;19850;49.576;10.880;2023-02-01T02:42:37;4.43;;;3.50;;
15022;SDS011;19850;49.576;10.880;2023-02-01T02:47:02;4.20;;;3.83;;
15022;SDS011;19850;49.576;10.880;2023-02-01T02:51:25;4.37;;;3.57;;
15022;SDS011;19850;49.576;10.880;2023-02-01T02:55:49;2.93;;;2.73;;
15022;SDS011;19850;49.576;10.880;2023-02-01T02:59:53;5.57;;;3.00;;
15022;SDS011;19850;49.576;10.880;2023-02-01T03:04:15;3.00;;;2.80;;
15022;SDS011;19850;49.576;10.880;2023-02-01T03:08:20;2.73;;;2.53;;
15022;SDS011;19850;49.576;10.880;2023-02-01T03:12:23;3.00;;;2.70;;
15022;SDS011;19850;49.576;10.880;2023-02-01T03:16:45;2.80;;;2.60;;
15022;SDS011;19850;49.576;10.880;2023-02-01T03:20:50;2.73;;;2.53;;
15022;SDS011;19850;49.576;10.880;2023-02-01T03:24:56;2.93;;;2.73;;
15022;SDS011;19850;49.576;10.880;2023-02-01T03:29:02;3.20;;;2.90;;
15022;SDS011;19850;49.576;10.880;2023-02-01T03:33:09;3.17;;;2.90;;
15022;SDS011;19850;49.576;10.880;2023-02-01T03:37:23;3.67;;;3.37;;
15022;SDS011;19850;49.576;10.880;2023-02-01T03:41:32;3.77;;;3.47;;
15022;SDS011;19850;49.576;10.880;2023-02-01T03:45:38;3.47;;;3.20;;
15022;SDS011;19850;49.576;10.880;2023-02-01T03:49:44;4.03;;;3.63;;
15022;SDS011;19850;49.576;10.880;2023-02-01T03:53:49;3.80;;;3.50;;
15022;SDS011;19850;49.576;10.880;2023-02-01T03:57:55;5.03;;;4.03;;
15022;SDS011;19850;49.576;10.880;2023-02-01T04:01:59;4.50;;;3.80;;
15022;SDS011;19850;49.576;10.880;2023-02-01T04:06:02;4.50;;;4.10;;
15022;SDS011;19850;49.576;10.880;2023-02-01T04:10:06;4.33;;;3.83;;
15022;SDS011;19850;49.576;10.880;2023-02-01T04:14:10;4.57;;;4.17;;
15022;SDS011;19850;49.576;10.880;2023-02-01T04:18:13;5.57;;;4.23;;
15022;SDS011;19850;49.576;10.880;2023-02-01T04:22:16;6.30;;;4.17;;
15022;SDS011;19850;49.576;10.880;2023-02-01T04:26:18;4.63;;;4.20;;
15022;SDS011;19850;49.576;10.880;2023-02-01T04:30:23;5.73;;;4.20;;
15022;SDS011;19850;49.576;10.880;2023-02-01T04:34:26;4.47;;;4.07;;
15022;SDS011;19850;49.576;10.880;2023-02-01T04:38:29;4.63;;;4.07;;
15022;SDS011;19850;49.576;10.880;2023-02-01T04:42:33;3.97;;;3.60;;
15022;SDS011;19850;49.576;10.880;2023-02-01T04:46:37;4.40;;;4.00;;
15022;SDS011;19850;49.576;10.880;2023-02-01T04:50:40;4.37;;;3.97;;
15022;SDS011;19850;49.576;10.880;2023-02-01T04:54:43;4.30;;;3.90;;
15022;SDS011;19850;49.576;10.880;2023-02-01T04:58:46;4.97;;;4.47;;
15022;SDS011;19850;49.576;10.880;2023-02-01T05:02:50;7.13;;;6.27;;
15022;SDS011;19850;49.576;10.880;2023-02-01T05:06:53;4.53;;;4.13;;
15022;SDS011;19850;49.576;10.880;2023-02-01T05:10:56;4.40;;;3.60;;
15022;SDS011;19850;49.576;10.880;2023-02-01T05:14:59;5.10;;;3.70;;
15022;SDS011;19850;49.576;10.880;2023-02-01T05:19:04;4.10;;;2.57;;
15022;SDS011;19850;49.576;10.880;2023-02-01T05:23:07;5.43;;;2.60;;
15022;SDS011;19850;49.576;10.880;2023-02-01T05:27:09;4.57;;;2.00;;
15022;SDS011;19850;49.576;10.880;2023-02-01T05:31:12;6.30;;;2.40;;
15022;SDS011;19850;49.576;10.880;2023-02-01T05:35:16;3.87;;;1.67;;
15022;SDS011;19850;49.576;10.880;2023-02-01T05:39:19;5.93;;;1.80;;
15022;SDS011;19850;49.576;10.880;2023-02-01T05:43:22;2.43;;;1.93;;
15022;SDS011;19850;49.576;10.880;2023-02-01T05:47:25;1.53;;;1.43;;
15022;SDS011;19850;49.576;10.880;2023-02-01T05:51:29;1.77;;;1.50;;
15022;SDS011;19850;49.576;10.880;2023-02-01T05:55:32;2.07;;;1.43;;
15022;SDS011;19850;49.576;10.880;2023-02-01T05:59:35;2.23;;;1.60;;
15022;SDS011;19850;49.576;10.880;2023-02-01T06:03:42;2.13;;;1.70;;
15022;SDS011;19850;49.576;10.880;2023-02-01T06:07:46;3.53;;;1.63;;
15022;SDS011;19850;49.576;10.880;2023-02-01T06:11:50;2.27;;;1.60;;
15022;SDS011;19850;49.576;10.880;2023-02-01T06:15:53;1.50;;;1.40;;
15022;SDS011;19850;49.576;10.880;2023-02-01T06:19:57;1.37;;;1.20;;
15022;SDS011;19850;49.576;10.880;2023-02-01T06:24:01;1.40;;;1.30;;
15022;SDS011;19850;49.576;10.880;2023-02-01T06:28:03;1.10;;;1.10;;
15022;SDS011;19850;49.576;10.880;2023-02-01T06:32:07;0.90;;;0.90;;
15022;SDS011;19850;49.576;10.880;2023-02-01T06:36:10;0.97;;;0.93;;
15022;SDS011;19850;49.576;10.880;2023-02-01T06:40:15;1.10;;;1.10;;
15022;SDS011;19850;49.576;10.880;2023-02-01T06:44:18;0.93;;;0.93;;
15022;SDS011;19850;49.576;10.880;2023-02-01T06:48:22;0.90;;;0.90;;
15022;SDS011;19850;49.576;10.880;2023-02-01T06:52:25;1.20;;;1.20;;
15022;SDS011;19850;49.576;10.880;2023-02-01T06:56:29;1.33;;;1.23;;
15022;SDS011;19850;49.576;10.880;2023-02-01T07:00:32;1.60;;;1.20;;
15022;SDS011;19850;49.576;10.880;2023-02-01T07:04:35;1.60;;;1.50;;
15022;SDS011;19850;49.576;10.880;2023-02-01T07:08:38;1.50;;;1.40;;
15022;SDS011;19850;49.576;10.880;2023-02-01T07:12:42;2.03;;;1.80;;
15022;SDS011;19850;49.576;10.880;2023-02-01T07:16:45;1.97;;;1.67;;
15022;SDS011;19850;49.576;10.880;2023-02-01T07:20:49;6.10;;;2.33;;
15022;SDS011;19850;49.576;10.880;2023-02-01T07:24:52;2.20;;;2.00;;
15022;SDS011;19850;49.576;10.880;2023-02-01T07:28:56;1.70;;;1.60;;
15022;SDS011;19850;49.576;10.880;2023-02-01T07:32:59;3.07;;;2.13;;
15022;SDS011;19850;49.576;10.880;2023-02-01T07:37:02;2.10;;;1.90;;
15022;SDS011;19850;49.576;10.880;2023-02-01T07:41:05;3.47;;;2.03;;
15022;SDS011;19850;49.576;10.880;2023-02-01T07:45:11;2.93;;;2.00;;
15022;SDS011;19850;49.576;10.880;2023-02-01T07:49:21;2.83;;;2.10;;
15022;SDS011;19850;49.576;10.880;2023-02-01T07:53:24;2.50;;;2.00;;
15022;SDS011;19850;49.576;10.880;2023-02-01T07:57:27;2.93;;;1.93;;
15022;SDS011;19850;49.576;10.880;2023-02-01T08:01:31;3.33;;;2.03;;
15022;SDS011;19850;49.576;10.880;2023-02-01T08:05:34;4.27;;;2.10;;
15022;SDS011;19850;49.576;10.880;2023-02-01T08:09:38;3.50;;;1.90;;
15022;SDS011;19850;49.576;10.880;2023-02-01T08:13:41;4.07;;;1.80;;
15022;SDS011;19850;49.576;10.880;2023-02-01T08:17:48;4.83;;;2.03;;
15022;SDS011;19850;49.576;10.880;2023-02-01T08:21:52;2.40;;;1.63;;
15022;SDS011;19850;49.576;10.880;2023-02-01T08:25:55;3.50;;;1.63;;
15022;SDS011;19850;49.576;10.880;2023-02-01T08:30:07;3.53;;;1.67;;
15022;SDS011;19850;49.576;10.880;2023-02-01T08:34:12;2.83;;;1.50;;
15022;SDS011;19850;49.576;10.880;2023-02-01T08:38:15;3.87;;;1.67;;
15022;SDS011;19850;49.576;10.880;2023-02-01T08:42:18;6.40;;;1.80;;
15022;SDS011;19850;49.576;10.880;2023-02-01T08:46:38;1.87;;;1.40;;
15022;SDS011;19850;49.576;10.880;2023-02-01T08:50:43;3.50;;;1.47;;
15022;SDS011;19850;49.576;10.880;2023-02-01T08:54:45;4.10;;;2.20;;
15022;SDS011;19850;49.576;10.880;2023-02-01T08:58:48;5.27;;;2.00;;
15022;SDS011;19850;49.576;10.880;2023-02-01T09:02:51;4.13;;;2.00;;
15022;SDS011;19850;49.576;10.880;2023-02-01T09:06:55;4.93;;;1.93;;
15022;SDS011;19850;49.576;10.880;2023-02-01T09:10:59;2.57;;;1.60;;
15022;SDS011;19850;49.576;10.880;2023-02-01T09:15:04;2.87;;;2.10;;
15022;SDS011;19850;49.576;10.880;2023-02-01T09:19:08;4.93;;;2.30;;
15022;SDS011;19850;49.576;10.880;2023-02-01T09:23:29;4.47;;;1.80;;
15022;SDS011;19850;49.576;10.880;2023-02-01T09:27:32;5.77;;;1.77;;
15022;SDS011;19850;49.576;10.880;2023-02-01T09:31:35;5.10;;;1.90;;
15022;SDS011;19850;49.576;10.880;2023-02-01T09:35:40;5.27;;;1.87;;
15022;SDS011;19850;49.576;10.880;2023-02-01T09:39:44;4.07;;;1.73;;
15022;SDS011;19850;49.576;10.880;2023-02-01T09:43:48;4.23;;;1.83;;
15022;SDS011;19850;49.576;10.880;2023-02-01T09:47:57;4.97;;;2.07;;
15022;SDS011;19850;49.576;10.880;2023-02-01T09:52:04;3.30;;;1.50;;
15022;SDS011;19850;49.576;10.880;2023-02-01T09:56:11;5.50;;;1.80;;
15022;SDS011;19850;49.576;10.880;2023-02-01T10:00:17;6.93;;;1.80;;
15022;SDS011;19850;49.576;10.880;2023-02-01T10:04:23;5.30;;;1.70;;
15022;SDS011;19850;49.576;10.880;2023-02-01T10:08:29;6.57;;;2.10;;
15022;SDS011;19850;49.576;10.880;2023-02-01T10:12:44;5.83;;;1.87;;
15022;SDS011;19850;49.576;10.880;2023-02-01T10:16:54;6.37;;;2.50;;
15022;SDS011;19850;49.576;10.880;2023-02-01T10:21:02;8.07;;;2.23;;
15022;SDS011;19850;49.576;10.880;2023-02-01T10:25:13;8.70;;;2.73;;
15022;SDS011;19850;49.576;10.880;2023-02-01T10:29:19;5.30;;;2.57;;
15022;SDS011;19850;49.576;10.880;2023-02-01T10:33:24;6.00;;;2.63;;
15022;SDS011;19850;49.576;10.880;2023-02-01T10:37:29;5.80;;;2.60;;
15022;SDS011;19850;49.576;10.880;2023-02-01T10:41:33;7.50;;;2.67;;
15022;SDS011;19850;49.576;10.880;2023-02-01T10:45:40;6.60;;;2.70;;
15022;SDS011;19850;49.576;10.880;2023-02-01T10:49:45;8.83;;;2.97;;
15022;SDS011;19850;49.576;10.880;2023-02-01T10:53:53;8.90;;;2.90;;
15022;SDS011;19850;49.576;10.880;2023-02-01T10:57:58;8.30;;;2.90;;
15022;SDS011;19850;49.576;10.880;2023-02-01T11:02:05;8.60;;;2.80;;
15022;SDS011;19850;49.576;10.880;2023-02-01T11:06:21;9.87;;;3.10;;
15022;SDS011;19850;49.576;10.880;2023-02-01T11:10:34;6.73;;;2.67;;
15022;SDS011;19850;49.576;10.880;2023-02-01T11:14:38;11.03;;;3.20;;
15022;SDS011;19850;49.576;10.880;2023-02-01T11:18:43;7.40;;;3.03;;
15022;SDS011;19850;49.576;10.880;2023-02-01T11:22:46;9.13;;;3.50;;
15022;SDS011;19850;49.576;10.880;2023-02-01T11:26:50;7.10;;;2.97;;
15022;SDS011;19850;49.576;10.880;2023-02-01T11:30:54;9.23;;;2.27;;
15022;SDS011;19850;49.576;10.880;2023-02-01T11:35:01;7.37;;;2.40;;
15022;SDS011;19850;49.576;10.880;2023-02-01T11:39:24;7.10;;;2.70;;
15022;SDS011;19850;49.576;10.880;2023-02-01T11:43:28;7.57;;;2.40;;
15022;SDS011;19850;49.576;10.880;2023-02-01T11:47:38;10.90;;;3.00;;
15022;SDS011;19850;49.576;10.880;2023-02-01T11:51:45;6.10;;;2.17;;
15022;SDS011;19850;49.576;10.880;2023-02-01T11:56:01;10.30;;;2.73;;
15022;SDS011;19850;49.576;10.880;2023-02-01T12:00:13;9.10;;;2.60;;
15022;SDS011;19850;49.576;10.880;2023-02-01T12:04:40;7.13;;;2.10;;
15022;SDS011;19850;49.576;10.880;2023-02-01T12:09:14;6.30;;;2.47;;
15022;SDS011;19850;49.576;10.880;2023-02-01T12:13:28;7.13;;;2.30;;
15022;SDS011;19850;49.576;10.880;2023-02-01T12:17:42;9.53;;;2.67;;
15022;SDS011;19850;49.576;10.880;2023-02-01T12:22:14;7.67;;;2.37;;
15022;SDS011;19850;49.576;10.880;2023-02-01T12:26:38;10.30;;;2.60;;
15022;SDS011;19850;49.576;10.880;2023-02-01T12:30:52;9.63;;;2.93;;
15022;SDS011;19850;49.576;10.880;2023-02-01T12:35:19;8.80;;;2.43;;
15022;SDS011;19850;49.576;10.880;2023-02-01T12:39:29;10.27;;;2.87;;
15022;SDS011;19850;49.576;10.880;2023-02-01T12:43:42;9.23;;;3.00;;
15022;SDS011;19850;49.576;10.880;2023-02-01T12:47:49;8.63;;;2.87;;
15022;SDS011;19850;49.576;10.880;2023-02-01T12:51:57;8.73;;;2.87;;
15022;SDS011;19850;49.576;10.880;2023-02-01T12:56:03;8.83;;;2.90;;
15022;SDS011;19850;49.576;10.880;2023-02-01T13:00:16;10.20;;;2.97;;
15022;SDS011;19850;49.576;10.880;2023-02-01T13:04:29;8.20;;;2.67;;
15022;SDS011;19850;49.576;10.880;2023-02-01T13:08:38;9.67;;;2.63;;
15022;SDS011;19850;49.576;10.880;2023-02-01T13:12:47;8.23;;;2.83;;
15022;SDS011;19850;49.576;10.880;2023-02-01T13:16:56;8.17;;;2.37;;
15022;SDS011;19850;49.576;10.880;2023-02-01T13:21:03;10.03;;;2.73;;
15022;SDS011;19850;49.576;10.880;2023-02-01T13:25:11;8.47;;;2.60;;
15022;SDS011;19850;49.576;10.880;2023-02-01T13:29:15;8.77;;;2.73;;
15022;SDS011;19850;49.576;10.880;2023-02-01T13:38:05;7.27;;;2.90;;
15022;SDS011;19850;49.576;10.880;2023-02-01T13:42:42;8.80;;;2.90;;
15022;SDS011;19850;49.576;10.880;2023-02-01T13:46:49;6.53;;;2.60;;
15022;SDS011;19850;49.576;10.880;2023-02-01T13:50:55;9.53;;;2.77;;
15022;SDS011;19850;49.576;10.880;2023-02-01T13:55:14;10.33;;;2.60;;
15022;SDS011;19850;49.576;10.880;2023-02-01T13:59:48;8.20;;;2.27;;
15022;SDS011;19850;49.576;10.880;2023-02-01T14:03:53;7.30;;;2.50;;
15022;SDS011;19850;49.576;10.880;2023-02-01T14:08:07;9.00;;;2.53;;
15022;SDS011;19850;49.576;10.880;2023-02-01T14:21:21;7.87;;;2.50;;
15022;SDS011;19850;49.576;10.880;2023-02-01T14:25:31;11.47;;;2.47;;
15022;SDS011;19850;49.576;10.880;2023-02-01T14:29:36;9.03;;;2.07;;
15022;SDS011;19850;49.576;10.880;2023-02-01T14:33:40;7.70;;;2.43;;
15022;SDS011;19850;49.576;10.880;2023-02-01T14:37:44;11.30;;;2.83;;
15022;SDS011;19850;49.576;10.880;2023-02-01T14:41:54;8.70;;;3.00;;
15022;SDS011;19850;49.576;10.880;2023-02-01T14:46:04;8.57;;;2.30;;
15022;SDS011;19850;49.576;10.880;2023-02-01T14:50:18;11.33;;;2.33;;
15022;SDS011;19850;49.576;10.880;2023-02-01T14:54:29;9.70;;;2.50;;
15022;SDS011;19850;49.576;10.880;2023-02-01T14:58:35;11.87;;;2.67;;
15022;SDS011;19850;49.576;10.880;2023-02-01T15:02:43;8.20;;;2.23;;
15022;SDS011;19850;49.576;10.880;2023-02-01T15:06:48;8.53;;;2.20;;
15022;SDS011;19850;49.576;10.880;2023-02-01T15:10:52;8.90;;;2.23;;
15022;SDS011;19850;49.576;10.880;2023-02-01T15:19:26;7.60;;;2.80;;
15022;SDS011;19850;49.576;10.880;2023-02-01T15:23:32;6.60;;;2.20;;
15022;SDS011;19850;49.576;10.880;2023-02-01T15:27:35;9.30;;;2.63;;
15022;SDS011;19850;49.576;10.880;2023-02-01T15:31:39;10.17;;;2.53;;
15022;SDS011;19850;49.576;10.880;2023-02-01T15:35:46;8.37;;;2.20;;
15022;SDS011;19850;49.576;10.880;2023-02-01T15:40:03;9.77;;;2.70;;
15022;SDS011;19850;49.576;10.880;2023-02-01T15:44:11;11.33;;;2.70;;
15022;SDS011;19850;49.576;10.880;2023-02-01T15:48:22;9.97;;;2.47;;
15022;SDS011;19850;49.576;10.880;2023-02-01T15:52:31;8.10;;;2.17;;
15022;SDS011;19850;49.576;10.880;2023-02-01T15:56:37;9.97;;;2.43;;
15022;SDS011;19850;49.576;10.880;2023-02-01T16:00:43;5.97;;;2.27;;
15022;SDS011;19850;49.576;10.880;2023-02-01T16:04:47;9.67;;;3.00;;
15022;SDS011;19850;49.576;10.880;2023-02-01T16:08:54;8.17;;;2.80;;
15022;SDS011;19850;49.576;10.880;2023-02-01T16:12:58;10.47;;;2.70;;
15022;SDS011;19850;49.576;10.880;2023-02-01T16:17:01;10.17;;;2.60;;
15022;SDS011;19850;49.576;10.880;2023-02-01T16:21:04;9.17;;;2.27;;
15022;SDS011;19850;49.576;10.880;2023-02-01T16:25:10;8.83;;;2.73;;
15022;SDS011;19850;49.576;10.880;2023-02-01T16:29:13;9.20;;;2.30;;
15022;SDS011;19850;49.576;10.880;2023-02-01T16:33:18;7.67;;;2.20;;
15022;SDS011;19850;49.576;10.880;2023-02-01T16:37:23;7.90;;;1.97;;
15022;SDS011;19850;49.576;10.880;2023-02-01T16:41:30;15.57;;;2.87;;
15022;SDS011;19850;49.576;10.880;2023-02-01T16:45:33;6.90;;;2.27;;
15022;SDS011;19850;49.576;10.880;2023-02-01T16:49:36;9.00;;;2.47;;
15022;SDS011;19850;49.576;10.880;2023-02-01T16:53:39;7.87;;;2.70;;
15022;SDS011;19850;49.576;10.880;2023-02-01T16:57:56;7.20;;;2.50;;
15022;SDS011;19850;49.576;10.880;2023-02-01T17:01:58;8.83;;;2.37;;
15022;SDS011;19850;49.576;10.880;2023-02-01T17:06:01;11.60;;;2.87;;
15022;SDS011;19850;49.576;10.880;2023-02-01T17:10:05;12.13;;;2.60;;
15022;SDS011;19850;49.576;10.880;2023-02-01T17:14:14;8.67;;;2.80;;
15022;SDS011;19850;49.576;10.880;2023-02-01T17:18:17;8.47;;;2.40;;
15022;SDS011;19850;49.576;10.880;2023-02-01T17:22:21;10.10;;;2.60;;
15022;SDS011;19850;49.576;10.880;2023-02-01T17:26:24;8.77;;;2.40;;
15022;SDS011;19850;49.576;10.880;2023-02-01T17:30:29;8.83;;;2.37;;
15022;SDS011;19850;49.576;10.880;2023-02-01T17:34:32;9.00;;;2.47;;
15022;SDS011;19850;49.576;10.880;2023-02-01T17:38:35;9.57;;;2.57;;
15022;SDS011;19850;49.576;10.880;2023-02-01T17:42:38;7.90;;;2.53;;
15022;SDS011;19850;49.576;10.880;2023-02-01T17:46:43;8.33;;;2.57;;
15022;SDS011;19850;49.576;10.880;2023-02-01T17:50:47;9.37;;;2.70;;
15022;SDS011;19850;49.576;10.880;2023-02-01T17:54:53;9.57;;;2.40;;
15022;SDS011;19850;49.576;10.880;2023-02-01T17:58:56;7.97;;;2.40;;
15022;SDS011;19850;49.576;10.880;2023-02-01T18:03:01;9.60;;;2.70;;
15022;SDS011;19850;49.576;10.880;2023-02-01T18:07:04;10.63;;;2.43;;
15022;SDS011;19850;49.576;10.880;2023-02-01T18:11:09;12.60;;;2.70;;
15022;SDS011;19850;49.576;10.880;2023-02-01T18:15:14;14.43;;;2.93;;
15022;SDS011;19850;49.576;10.880;2023-02-01T18:19:21;10.27;;;2.90;;
15022;SDS011;19850;49.576;10.880;2023-02-01T18:23:23;8.63;;;2.77;;
15022;SDS011;19850;49.576;10.880;2023-02-01T18:27:26;9.43;;;2.67;;
15022;SDS011;19850;49.576;10.880;2023-02-01T18:31:30;10.20;;;2.77;;
15022;SDS011;19850;49.576;10.880;2023-02-01T18:35:35;9.77;;;2.63;;
15022;SDS011;19850;49.576;10.880;2023-02-01T18:39:38;9.30;;;2.90;;
15022;SDS011;19850;49.576;10.880;2023-02-01T18:43:40;12.77;;;3.13;;
15022;SDS011;19850;49.576;10.880;2023-02-01T18:47:43;9.70;;;3.47;;
15022;SDS011;19850;49.576;10.880;2023-02-01T18:51:48;10.00;;;3.00;;
15022;SDS011;19850;49.576;10.880;2023-02-01T18:55:52;12.00;;;3.00;;
15022;SDS011;19850;49.576;10.880;2023-02-01T18:59:56;8.80;;;2.50;;
15022;SDS011;19850;49.576;10.880;2023-02-01T19:03:58;9.10;;;2.70;;
15022;SDS011;19850;49.576;10.880;2023-02-01T19:08:20;6.50;;;2.40;;
15022;SDS011;19850;49.576;10.880;2023-02-01T19:12:24;9.60;;;3.00;;
15022;SDS011;19850;49.576;10.880;2023-02-01T19:16:27;11.27;;;3.10;;
15022;SDS011;19850;49.576;10.880;2023-02-01T19:20:30;10.10;;;2.57;;
15022;SDS011;19850;49.576;10.880;2023-02-01T19:24:34;9.47;;;2.97;;
15022;SDS011;19850;49.576;10.880;2023-02-01T19:28:37;10.27;;;3.40;;
15022;SDS011;19850;49.576;10.880;2023-02-01T19:32:40;13.87;;;3.30;;
15022;SDS011;19850;49.576;10.880;2023-02-01T19:36:43;13.17;;;3.50;;
15022;SDS011;19850;49.576;10.880;2023-02-01T19:40:48;12.43;;;3.47;;
15022;SDS011;19850;49.576;10.880;2023-02-01T19:44:51;6.87;;;2.50;;
15022;SDS011;19850;49.576;10.880;2023-02-01T19:48:54;9.77;;;3.17;;
15022;SDS011;19850;49.576;10.880;2023-02-01T19:52:57;10.77;;;3.20;;
15022;SDS011;19850;49.576;10.880;2023-02-01T19:57:01;10.70;;;3.00;;
15022;SDS011;19850;49.576;10.880;2023-02-01T20:01:04;10.53;;;2.83;;
15022;SDS011;19850;49.576;10.880;2023-02-01T20:05:08;9.20;;;2.63;;
15022;SDS011;19850;49.576;10.880;2023-02-01T20:09:12;11.93;;;2.83;;
15022;SDS011;19850;49.576;10.880;2023-02-01T20:13:17;12.10;;;2.97;;
15022;SDS011;19850;49.576;10.880;2023-02-01T20:17:20;11.80;;;2.77;;
15022;SDS011;19850;49.576;10.880;2023-02-01T20:21:22;10.10;;;2.70;;
15022;SDS011;19850;49.576;10.880;2023-02-01T20:25:25;9.33;;;2.97;;
15022;SDS011;19850;49.576;10.880;2023-02-01T20:29:30;10.57;;;2.83;;
15022;SDS011;19850;49.576;10.880;2023-02-01T20:33:33;12.43;;;3.03;;
15022;SDS011;19850;49.576;10.880;2023-02-01T20:37:35;11.77;;;3.03;;
15022;SDS011;19850;49.576;10.880;2023-02-01T20:41:38;9.10;;;2.80;;
15022;SDS011;19850;49.576;10.880;2023-02-01T20:45:43;12.63;;;3.00;;
15022;SDS011;19850;49.576;10.880;2023-02-01T20:49:46;11.27;;;2.53;;
15022;SDS011;19850;49.576;10.880;2023-02-01T20:53:49;9.23;;;2.57;;
15022;SDS011;19850;49.576;10.880;2023-02-01T20:57:55;11.33;;;3.17;;
15022;SDS011;19850;49.576;10.880;2023-02-01T21:01:59;11.30;;;2.97;;
15022;SDS011;19850;49.576;10.880;2023-02-01T21:06:03;12.63;;;3.20;;
15022;SDS011;19850;49.576;10.880;2023-02-01T21:10:06;12.13;;;2.67;;
15022;SDS011;19850;49.576;10.880;2023-02-01T21:14:11;11.63;;;2.97;;
15022;SDS011;19850;49.576;10.880;2023-02-01T21:18:15;9.03;;;3.13;;
15022;SDS011;19850;49.576;10.880;2023-02-01T21:22:18;11.53;;;2.97;;
15022;SDS011;19850;49.576;10.880;2023-02-01T21:26:23;14.33;;;4.50;;
15022;SDS011;19850;49.576;10.880;2023-02-01T21:30:26;9.57;;;3.00;;
15022;SDS011;19850;49.576;10.880;2023-02-01T21:34:30;11.77;;;3.00;;
15022;SDS011;19850;49.576;10.880;2023-02-01T21:38:33;9.37;;;2.73;;
15022;SDS011;19850;49.576;10.880;2023-02-01T21:42:36;10.80;;;2.70;;
15022;SDS011;19850;49.576;10.880;2023-02-01T21:46:40;11.57;;;2.77;;
15022;SDS011;19850;49.576;10.880;2023-02-01T21:50:45;11.23;;;3.10;;
15022;SDS011;19850;49.576;10.880;2023-02-01T21:54:47;11.53;;;3.03;;
15022;SDS011;19850;49.576;10.880;2023-02-01T21:58:57;7.47;;;2.30;;
15022;SDS011;19850;49.576;10.880;2023-02-01T22:02:59;10.87;;;2.77;;
15022;SDS011;19850;49.576;10.880;2023-02-01T22:07:04;9.10;;;2.63;;
15022;SDS011;19850;49.576;10.880;2023-02-01T22:11:06;10.80;;;2.87;;
15022;SDS011;19850;49.576;10.880;2023-02-01T22:15:10;8.80;;;2.70;;
15022;SDS011;19850;49.576;10.880;2023-02-01T22:19:13;12.93;;;2.77;;
15022;SDS011;19850;49.576;10.880;2023-02-01T22:23:17;7.77;;;2.57;;
15022;SDS011;19850;49.576;10.880;2023-02-01T22:27:20;12.27;;;2.80;;
15022;SDS011;19850;49.576;10.880;2023-02-01T22:31:42;9.90;;;2.63;;
15022;SDS011;19850;49.576;10.880;2023-02-01T22:35:46;10.57;;;2.57;;
15022;SDS011;19850;49.576;10.880;2023-02-01T22:39:52;8.90;;;2.43;;
15022;SDS011;19850;49.576;10.880;2023-02-01T22:43:57;12.40;;;2.73;;
15022;SDS011;19850;49.576;10.880;2023-02-01T22:48:00;11.10;;;2.87;;
15022;SDS011;19850;49.576;10.880;2023-02-01T22:52:03;10.30;;;2.63;;
15022;SDS011;19850;49.576;10.880;2023-02-01T22:56:08;9.27;;;2.60;;
15022;SDS011;19850;49.576;10.880;2023-02-01T23:00:13;9.37;;;2.60;;
15022;SDS011;19850;49.576;10.880;2023-02-01T23:04:16;12.40;;;2.53;;
15022;SDS011;19850;49.576;10.880;2023-02-01T23:08:21;9.23;;;2.67;;
15022;SDS011;19850;49.576;10.880;2023-02-01T23:12:25;10.03;;;2.50;;
15022;SDS011;19850;49.576;10.880;2023-02-01T23:16:28;9.17;;;2.47;;
15022;SDS011;19850;49.576;10.880;2023-02-01T23:20:31;9.77;;;2.50;;
15022;SDS011;19850;49.576;10.880;2023-02-01T23:24:33;6.93;;;2.37;;
15022;SDS011;19850;49.576;10.880;2023-02-01T23:28:37;11.43;;;2.63;;
15022;SDS011;19850;49.576;10.880;2023-02-01T23:32:41;11.67;;;2.93;;
15022;SDS011;19850;49.576;10.880;2023-02-01T23:36:43;9.50;;;2.60;;
15022;SDS011;19850;49.576;10.880;2023-02-01T23:40:46;5.93;;;2.30;;
15022;SDS011;19850;49.576;10.880;2023-02-01T23:44:51;9.10;;;2.53;;
15022;SDS011;19850;49.576;10.880;2023-02-01T23:48:54;9.60;;;2.37;;
15022;SDS011;19850;49.576;10.880;2023-02-01T23:52:57;6.90;;;2.20;;
15022;SDS011;19850;49.576;10.880;2023-02-01T23:57:00;9.33;;;2.43;;
